TimeCDT,TemperatureF,Dew PointF,Humidity,Sea Level PressureIn,VisibilityMPH,Wind Direction,Wind SpeedMPH,Gust SpeedMPH,PrecipitationIn,Events,Conditions,WindDirDegrees,DateUTC
12:53 AM,78.1,72.0,81,29.94,10.0,South,6.9,-,N/A,,Clear,170,2013-06-26 05:53:00
1:53 AM,75.9,72.0,87,29.93,10.0,South,4.6,-,N/A,,Clear,180,2013-06-26 06:53:00
2:53 AM,75.9,72.0,87,29.94,10.0,South,5.8,-,N/A,,Clear,170,2013-06-26 07:53:00
3:53 AM,75.0,72.0,90,29.93,10.0,South,5.8,-,N/A,,Clear,170,2013-06-26 08:53:00
4:53 AM,73.0,72.0,96,29.95,10.0,South,5.8,-,N/A,,Clear,180,2013-06-26 09:53:00
5:53 AM,73.0,72.0,96,29.96,9.0,South,4.6,-,N/A,,Clear,170,2013-06-26 10:53:00
6:53 AM,73.9,73.0,97,29.99,8.0,South,8.1,-,N/A,,Clear,170,2013-06-26 11:53:00
7:20 AM,75.2,73.4,94,30.01,9.0,South,9.2,-,N/A,,Mostly Cloudy,180,2013-06-26 12:20:00
7:49 AM,75.2,73.4,94,30.02,10.0,SSW,9.2,-,N/A,,Overcast,200,2013-06-26 12:49:00
7:53 AM,77.0,73.9,90,30.01,10.0,SSW,9.2,-,N/A,,Overcast,200,2013-06-26 12:53:00
8:32 AM,78.8,73.4,83,30.03,10.0,SSW,10.4,-,N/A,,Overcast,200,2013-06-26 13:32:00
8:53 AM,80.1,73.9,81,30.03,10.0,SW,9.2,-,N/A,,Mostly Cloudy,220,2013-06-26 13:53:00
9:14 AM,80.6,73.4,79,30.03,10.0,SSW,11.5,-,N/A,,Mostly Cloudy,210,2013-06-26 14:14:00
9:53 AM,82.9,73.0,72,30.02,10.0,SW,15.0,-,N/A,,Mostly Cloudy,220,2013-06-26 14:53:00
10:49 AM,84.2,71.6,66,30.03,10.0,SSW,12.7,20.7,N/A,,Scattered Clouds,210,2013-06-26 15:49:00
10:53 AM,84.9,72.0,65,30.02,10.0,SSW,13.8,20.7,N/A,,Partly Cloudy,200,2013-06-26 15:53:00
11:53 AM,87.1,72.0,61,30.01,10.0,SSW,15.0,19.6,0.02,,Clear,200,2013-06-26 16:53:00
12:53 PM,90.0,72.0,55,29.99,10.0,SSW,13.8,-,N/A,,Partly Cloudy,210,2013-06-26 17:53:00
1:53 PM,91.0,71.1,52,29.97,10.0,SSW,12.7,17.3,N/A,,Clear,210,2013-06-26 18:53:00
2:53 PM,91.9,70.0,48,29.96,10.0,South,10.4,-,N/A,,Clear,190,2013-06-26 19:53:00
3:53 PM,91.9,71.1,50,29.94,10.0,SW,9.2,-,N/A,,Clear,220,2013-06-26 20:53:00
4:53 PM,91.9,71.1,50,29.92,10.0,SSW,9.2,-,N/A,,Clear,210,2013-06-26 21:53:00
5:53 PM,91.0,72.0,53,29.91,10.0,WSW,4.6,-,N/A,,Clear,240,2013-06-26 22:53:00
6:53 PM,90.0,73.0,57,29.91,10.0,South,8.1,-,N/A,,Partly Cloudy,180,2013-06-26 23:53:00
7:53 PM,87.1,73.9,65,29.91,10.0,South,4.6,-,N/A,,Clear,180,2013-06-27 00:53:00
8:53 PM,82.9,75.0,77,29.91,10.0,Calm,Calm,-,N/A,,Clear,0,2013-06-27 01:53:00
9:53 PM,79.0,75.0,88,29.91,10.0,Calm,Calm,-,N/A,,Clear,0,2013-06-27 02:53:00
10:53 PM,77.0,73.9,90,29.92,10.0,Calm,Calm,-,N/A,,Clear,0,2013-06-27 03:53:00
11:53 PM,77.0,73.9,90,29.94,10.0,Calm,Calm,-,N/A,,Clear,0,2013-06-27 04:53:00